首页
METAR-TAF:

METAR-TAF

机场 :

Air Force Base

Langley, 弗吉尼亚州, 美国

纬度: 37-05N, 经度: 076-21W, 海拔: 3米

当前天气观测

该预报发布于36分钟前的18:56 UTC
风速13节,风向西,有时为20节阵风
温度 29°C
湿度 62%
气压 1020 hPa
能見度: 16.1公里
天空无云

METAR: KLFI 231856Z AUTO 26013G20KT 10SM CLR 29/21 A3011 RMK AO2 SLP203 T02930210 $

时间: 15:32 (19:32 UTC)

预报

该预报发布于1小时和27分钟前的18:05 UTC
预报有效从23日的 18点(UTC)到 24日的 23点(UTC)
风速12节,风向西转西南,有时为18节阵风
能见度10公里或以上
散云层高于10000英尺
短暂存在
从 23日的 18点(UTC)到 23日的 21点(UTC)
风速15节,风向西转西南,有时为25节阵风
短暂存在
从 24日的 03点(UTC)到 24日的 06点(UTC)
能見度: 6000
多云层高于3000英尺
小阵雨
成为
从 24日的 13点(UTC)到 24日的 14点(UTC)
风速9节,风向北转西北
能见度10公里或以上
散云层高于4000英尺
成为
从 24日的 19点(UTC)到 24日的 20点(UTC)
风速6节,风向
能见度10公里或以上
天空无云

TAF: KLFI 231805Z 2318/2423 25012G18KT 9999 SCT100 QNH2993INS TEMPO 2318/2321 25015G25KT TEMPO 2403/2406 6000 -SHRA BKN030 BECMG 2413/2414 33009KT 9999 SCT040 QNH3000INS BECMG 2419/2420 01006KT 9999 SKC QNH3000INS TX30/2319Z TN26/2408Z

超过4000个机场的气象观测和天气预报(METAR&TAF报告)。

可查询的气象台以黄色和红色小点在地图上表示。

将鼠标移到小点上方,可查看气象台名称。

然后点击查看天气观测和预报。

如需切换地图:点击带黑十字的绿色按钮放大地图;点击带横线的绿色按钮缩小地图;或者点击绿色箭头查看邻近地区的地图。


METAR-TAF: